createdAt,value
2019-03-09T00:03:57.716Z,98100.19
2019-03-09T00:09:03.286Z,98094.99
2019-03-09T00:14:09.957Z,98079.25
2019-03-09T00:19:15.168Z,98076.56
2019-03-09T00:24:35.524Z,98065.56
2019-03-09T00:29:59.597Z,98057.55
2019-03-09T00:35:05.753Z,98050.84
2019-03-09T00:40:12.054Z,98066.66
2019-03-09T00:45:18.021Z,98067.11
2019-03-09T00:50:23.692Z,98075.24
2019-03-09T00:55:29.197Z,98068.78
2019-03-09T01:00:36.469Z,98063.75
2019-03-09T01:05:41.901Z,98052.50
2019-03-09T01:10:47.130Z,98048.29
2019-03-09T01:15:53.769Z,98034.86
2019-03-09T01:20:58.827Z,98034.97
2019-03-09T01:26:04.296Z,98016.84
2019-03-09T01:31:09.427Z,98005.92
2019-03-09T01:36:14.692Z,97993.34
2019-03-09T01:41:21.096Z,97973.27
2019-03-09T01:46:26.876Z,97958.55
2019-03-09T01:51:31.935Z,97950.86
2019-03-09T01:56:37.774Z,97940.06
2019-03-09T02:01:43.544Z,97910.39
2019-03-09T02:06:48.675Z,97901.97
2019-03-09T02:11:54.455Z,97892.19
2019-03-09T02:17:00.279Z,97898.19
2019-03-09T02:22:05.725Z,97874.37
2019-03-09T02:27:11.189Z,97868.63
2019-03-09T02:32:16.069Z,97857.45
2019-03-09T02:37:22.257Z,97840.22
2019-03-09T02:42:27.369Z,97824.53
2019-03-09T02:47:32.720Z,97824.20
2019-03-09T02:52:38.571Z,97779.99
2019-03-09T02:57:44.068Z,97781.36
2019-03-09T03:02:58.224Z,97777.35
2019-03-09T03:08:03.363Z,97760.23
2019-03-09T03:13:09.019Z,97755.97
2019-03-09T03:18:14.434Z,97745.38
2019-03-09T03:23:19.534Z,97736.80
2019-03-09T03:28:24.912Z,97742.23
2019-03-09T03:33:30.250Z,97722.45
2019-03-09T03:38:35.378Z,97703.89
2019-03-09T03:43:40.554Z,97707.50
2019-03-09T03:48:45.788Z,97703.19
2019-03-09T03:53:51.197Z,97681.77
2019-03-09T03:58:56.736Z,97673.63
2019-03-09T04:04:01.843Z,97663.17
2019-03-09T04:09:07.715Z,97662.36
2019-03-09T04:14:13.122Z,97651.29
2019-03-09T04:19:18.585Z,97646.03
2019-03-09T04:24:23.731Z,97645.13
2019-03-09T04:29:29.060Z,97625.42
2019-03-09T04:34:34.568Z,97626.62
2019-03-09T04:39:39.885Z,97623.98
2019-03-09T04:44:45.144Z,97621.74
2019-03-09T04:49:50.293Z,97607.99
2019-03-09T04:54:55.551Z,97607.20
2019-03-09T05:00:01.958Z,97580.70
2019-03-09T05:05:08.424Z,97601.52
2019-03-09T05:10:38.049Z,97590.48
2019-03-09T05:15:43.192Z,97579.22
2019-03-09T05:20:48.780Z,97581.72
2019-03-09T05:25:54.379Z,97579.89
2019-03-09T05:30:59.808Z,97561.99
2019-03-09T05:36:05.256Z,97564.41
2019-03-09T05:41:10.509Z,97576.55
2019-03-09T05:46:15.984Z,97549.77
2019-03-09T05:51:21.515Z,97554.63
2019-03-09T05:56:27.090Z,97534.39
2019-03-09T06:01:32.596Z,97547.73
2019-03-09T06:06:38.622Z,97552.95
2019-03-09T06:11:43.800Z,97565.79
2019-03-09T06:16:48.957Z,97563.42
2019-03-09T06:21:54.585Z,97555.84
2019-03-09T06:27:00.081Z,97543.70
2019-03-09T06:32:51.508Z,97564.83
2019-03-09T06:38:08.231Z,97583.42
2019-03-09T06:43:13.322Z,97585.05
2019-03-09T06:48:18.502Z,97580.27
2019-03-09T06:53:23.948Z,97556.56
2019-03-09T06:58:29.453Z,97598.70
2019-03-09T07:03:35.210Z,97590.10
2019-03-09T07:08:41.944Z,97591.53
2019-03-09T07:13:52.961Z,97610.94
2019-03-09T07:18:54.045Z,97589.93
2019-03-09T07:23:59.141Z,97629.97
2019-03-09T07:29:04.764Z,97630.09
2019-03-09T07:34:26.253Z,97648.70
2019-03-09T07:39:31.670Z,97645.98
2019-03-09T07:44:36.924Z,97667.93
2019-03-09T07:49:42.432Z,97639.91
2019-03-09T07:54:48.296Z,97646.91
2019-03-09T07:59:53.521Z,97632.69
2019-03-09T08:04:58.589Z,97651.83
2019-03-09T08:10:03.732Z,97643.49
2019-03-09T08:15:10.208Z,97664.91
2019-03-09T08:20:15.597Z,97657.70
2019-03-09T08:25:21.019Z,97670.44
2019-03-09T08:30:26.321Z,97675.25
2019-03-09T08:35:31.495Z,97674.52
2019-03-09T08:40:37.749Z,97668.77
2019-03-09T08:45:42.882Z,97693.36
2019-03-09T08:50:48.897Z,97700.69
2019-03-09T08:55:54.173Z,97701.75
2019-03-09T09:00:59.303Z,97704.14
2019-03-09T09:06:04.534Z,97689.48
2019-03-09T09:11:09.782Z,97692.96
2019-03-09T09:16:15.276Z,97682.84
2019-03-09T09:21:21.566Z,97699.79
2019-03-09T09:26:26.781Z,97703.55
2019-03-09T09:31:33.264Z,97691.11
2019-03-09T09:36:38.539Z,97692.41
2019-03-09T09:41:44.384Z,97697.23
2019-03-09T09:46:50.845Z,97707.49
2019-03-09T09:51:58.913Z,97698.73
2019-03-09T09:57:05.307Z,97689.32
2019-03-09T10:02:10.584Z,97695.15
2019-03-09T10:07:15.808Z,97699.67
2019-03-09T10:12:21.407Z,97691.89
2019-03-09T10:17:26.660Z,97684.45
2019-03-09T10:22:33.420Z,97683.24
2019-03-09T10:27:39.603Z,97681.25
2019-03-09T10:32:46.060Z,97679.03
2019-03-09T10:37:52.796Z,97675.13
2019-03-09T10:42:58.071Z,97666.19
2019-03-09T10:48:03.514Z,97686.98
2019-03-09T10:53:08.771Z,97699.80
2019-03-09T10:58:14.171Z,97699.48
2019-03-09T11:03:19.412Z,97706.34
2019-03-09T11:08:24.798Z,97702.77
2019-03-09T11:13:31.016Z,97735.98
2019-03-09T11:18:37.479Z,97718.00
2019-03-09T11:23:43.357Z,97767.37
2019-03-09T11:28:48.927Z,97727.87
2019-03-09T11:33:54.492Z,97725.20
2019-03-09T11:38:59.739Z,97725.62
2019-03-09T11:44:04.979Z,97715.70
2019-03-09T11:49:10.229Z,97698.80
2019-03-09T11:54:15.804Z,97699.66
2019-03-09T11:59:21.034Z,97693.41
2019-03-09T12:04:26.278Z,97695.26
2019-03-09T12:09:33.443Z,97700.22
2019-03-09T12:14:39.094Z,97681.50
2019-03-09T12:19:45.046Z,97671.42
2019-03-09T12:24:55.765Z,97644.45
2019-03-09T12:30:03.692Z,97639.48
2019-03-09T12:35:08.605Z,97664.59
2019-03-09T12:40:15.514Z,97681.63
2019-03-09T12:45:21.390Z,97662.13
2019-03-09T12:50:26.719Z,97654.40
2019-03-09T12:55:32.333Z,97685.94
2019-03-09T13:00:37.626Z,97675.98
2019-03-09T13:05:43.621Z,97661.06
2019-03-09T13:10:50.321Z,97663.50
2019-03-09T13:15:55.965Z,97626.76
2019-03-09T13:21:02.966Z,97654.27
2019-03-09T13:26:08.616Z,97657.02
2019-03-09T13:31:14.182Z,97652.72
2019-03-09T13:36:19.416Z,97619.52
2019-03-09T13:41:24.999Z,97616.22
2019-03-09T13:46:30.224Z,97582.56
2019-03-09T13:51:36.352Z,97595.90
2019-03-09T13:56:41.959Z,97573.09
2019-03-09T14:01:47.313Z,97556.22
2019-03-09T14:06:52.538Z,97553.58
2019-03-09T14:11:57.766Z,97550.44
2019-03-09T14:17:03.386Z,97521.69
2019-03-09T14:22:08.686Z,97515.14
2019-03-09T14:27:15.283Z,97499.28
2019-03-09T14:32:20.577Z,97489.16
2019-03-09T14:37:25.806Z,97511.06
2019-03-09T14:42:31.227Z,97486.63
2019-03-09T14:47:36.509Z,97464.58
2019-03-09T14:52:42.038Z,97442.03
2019-03-09T14:57:47.323Z,97430.50
2019-03-09T15:02:52.894Z,97419.12
2019-03-09T15:07:58.147Z,97370.86
2019-03-09T15:13:04.064Z,97339.91
2019-03-09T15:18:09.598Z,97329.19
2019-03-09T15:23:14.821Z,97323.83
2019-03-09T15:28:20.049Z,97324.49
2019-03-09T15:33:25.282Z,97364.19
2019-03-09T15:38:30.535Z,97338.91
2019-03-09T15:43:35.792Z,97315.59
2019-03-09T15:48:42.174Z,97302.58
2019-03-09T15:53:47.433Z,97279.52
2019-03-09T15:58:52.674Z,97267.19
2019-03-09T16:03:58.262Z,97230.81
2019-03-09T16:09:05.107Z,97212.36
2019-03-09T16:14:11.601Z,97197.42
2019-03-09T16:19:17.205Z,97176.55
2019-03-09T16:24:22.762Z,97165.86
2019-03-09T16:29:29.106Z,97160.94
2019-03-09T16:34:34.371Z,97167.45
2019-03-09T16:39:39.605Z,97186.61
2019-03-09T16:44:45.113Z,97178.86
2019-03-09T16:49:50.775Z,97180.45
2019-03-09T16:54:57.864Z,97164.73
2019-03-09T17:00:03.101Z,97184.70
2019-03-09T17:05:09.800Z,97194.41
2019-03-09T17:10:15.465Z,97181.20
2019-03-09T17:15:20.693Z,97182.47
2019-03-09T17:20:26.109Z,97183.30
2019-03-09T17:25:31.350Z,97187.73
2019-03-09T17:30:36.616Z,97204.90
2019-03-09T17:35:41.761Z,97214.92
2019-03-09T17:40:47.354Z,97213.89
2019-03-09T17:45:52.516Z,97229.75
2019-03-09T17:50:58.369Z,97224.70
2019-03-09T17:56:04.812Z,97254.73
2019-03-09T18:01:11.001Z,97250.75
2019-03-09T18:06:16.160Z,97243.44
2019-03-09T18:11:22.033Z,97250.39
2019-03-09T18:16:27.300Z,97272.20
2019-03-09T18:21:32.466Z,97277.79
2019-03-09T18:26:37.945Z,97437.80
2019-03-09T18:31:43.092Z,97512.88
2019-03-09T18:36:49.046Z,97482.92
2019-03-09T18:41:54.632Z,97454.14
2019-03-09T18:47:00.094Z,97437.60
2019-03-09T18:52:05.937Z,97444.25
2019-03-09T18:57:11.571Z,97449.91
2019-03-09T19:02:16.717Z,97511.88
2019-03-09T19:07:21.874Z,97482.83
2019-03-09T19:12:27.328Z,97551.33
2019-03-09T19:17:32.582Z,97533.99
2019-03-09T19:22:39.052Z,97548.08
2019-03-09T19:27:44.517Z,97588.30
2019-03-09T19:32:59.614Z,97595.59
2019-03-09T19:37:57.232Z,97594.48
2019-03-09T19:43:02.821Z,97625.02
2019-03-09T19:48:08.261Z,97660.11
2019-03-09T19:53:15.216Z,97652.32
2019-03-09T19:58:25.238Z,97689.13
2019-03-09T20:03:30.690Z,97740.19
2019-03-09T20:08:38.127Z,97737.00
2019-03-09T20:13:44.071Z,97735.84
2019-03-09T20:18:51.429Z,97743.88
2019-03-09T20:23:56.574Z,97757.48
2019-03-09T20:29:02.366Z,97789.16
2019-03-09T20:34:07.512Z,97852.30
2019-03-09T20:39:13.881Z,97846.47
2019-03-09T20:44:20.169Z,97798.41
2019-03-09T20:49:25.393Z,97803.05
2019-03-09T20:54:32.842Z,97842.30
2019-03-09T20:59:38.169Z,97838.53
2019-03-09T21:04:43.415Z,97853.56
2019-03-09T21:09:48.586Z,97848.43
2019-03-09T21:14:55.745Z,97868.78
2019-03-09T21:20:01.336Z,97871.95
2019-03-09T21:25:07.059Z,97880.73
2019-03-09T21:30:12.366Z,97893.20
2019-03-09T21:35:17.735Z,97896.72
2019-03-09T21:40:23.394Z,97897.14
2019-03-09T21:45:31.337Z,97914.36
2019-03-09T21:50:38.210Z,97943.52
2019-03-09T21:55:44.916Z,97966.84
2019-03-09T22:00:52.033Z,97934.75
2019-03-09T22:06:05.965Z,97944.02
2019-03-09T22:11:06.586Z,97953.67
2019-03-09T22:16:12.334Z,97948.58
2019-03-09T22:21:18.882Z,97967.41
2019-03-09T22:26:25.019Z,97955.41
2019-03-09T22:31:31.525Z,97978.91
2019-03-09T22:36:38.062Z,97961.02
2019-03-09T22:41:45.529Z,97950.21
2019-03-09T22:46:51.088Z,97957.72
2019-03-09T22:51:57.691Z,97962.53
2019-03-09T22:57:06.430Z,97959.80
2019-03-09T23:02:12.580Z,97950.34
2019-03-09T23:07:19.260Z,97943.78
2019-03-09T23:12:25.656Z,97952.34
2019-03-09T23:17:33.727Z,97959.45
2019-03-09T23:22:39.991Z,97958.48
2019-03-09T23:27:46.368Z,97974.31
2019-03-09T23:32:52.728Z,97976.17
2019-03-09T23:37:59.651Z,97989.98
2019-03-09T23:43:05.818Z,97991.43
2019-03-09T23:48:12.227Z,98003.73
2019-03-09T23:53:18.251Z,97999.01
2019-03-09T23:58:25.598Z,98008.30
